Time;durP1;ratioP1;P1;durP2;ratioP2;P2;SDS_P1;SDS_P2;PMS_P1;PMS_P2;Temp;Humidity;BMP_temperature;BMP_pressure;BME280_temperature;BME280_humidity;BME280_pressure;Samples;Min_cycle;Max_cycle;Signal;HPM_P1;HPM_P2
2024/01/11 00:00:07;;;;;;;69.72;26.65;;;;;;;-5.97;72.53;95933.34;6233944;22;20005;-91
2024/01/11 00:02:33;;;;;;;84.18;29.58;;;;;;;-5.38;72.61;95993.69;6233479;22;20068;-90
2024/01/11 00:04:58;;;;;;;74.00;27.80;;;;;;;-5.50;72.48;95982.81;6234722;22;20036;-88
2024/01/11 00:07:24;;;;;;;77.22;26.77;;;;;;;-4.59;72.21;96114.91;6233650;23;20005;-86
2024/01/11 00:09:49;;;;;;;83.80;29.20;;;;;;;-4.42;72.29;96165.75;6216465;23;20024;-87
2024/01/11 00:12:15;;;;;;;76.15;28.05;;;;;;;-6.78;71.83;95784.00;6218544;23;20009;-88
2024/01/11 00:14:41;;;;;;;74.68;28.70;;;;;;;-4.99;72.85;96093.09;6220175;23;20012;-87
2024/01/11 00:17:06;;;;;;;77.10;29.20;;;;;;;-6.52;72.74;95851.06;6217796;23;20026;-87
2024/01/11 00:19:32;;;;;;;64.25;26.10;;;;;;;-6.95;72.71;95784.88;6219476;23;20003;-87
2024/01/11 00:21:57;;;;;;;74.70;27.95;;;;;;;-6.25;72.80;95887.03;6218587;23;20036;-87
2024/01/11 00:24:23;;;;;;;72.97;27.10;;;;;;;-5.30;74.24;96024.75;6221937;23;20004;-87
2024/01/11 00:26:48;;;;;;;70.93;28.45;;;;;;;-5.03;73.21;96059.94;6220540;23;20009;-87
2024/01/11 00:29:14;;;;;;;74.43;25.77;;;;;;;-5.08;73.07;96045.69;6218698;23;20021;-88
2024/01/11 00:31:39;;;;;;;67.65;25.67;;;;;;;-5.37;73.58;96021.16;6221972;23;20011;-87
2024/01/11 00:34:05;;;;;;;71.88;25.80;;;;;;;-4.32;73.03;96180.22;6219568;23;20143;-86
2024/01/11 00:36:32;;;;;;;68.40;27.30;;;;;;;-5.81;73.03;95958.44;6220256;23;20080;-87
2024/01/11 00:38:58;;;;;;;77.60;27.10;;;;;;;-4.30;72.92;96174.88;6222558;23;20012;-87
2024/01/11 00:41:25;;;;;;;74.53;24.42;;;;;;;-4.29;72.30;96171.31;6225080;23;20009;-88
2024/01/11 00:43:51;;;;;;;61.33;25.48;;;;;;;-4.33;72.40;96170.00;6220190;23;20004;-87
2024/01/11 00:46:16;;;;;;;68.82;24.70;;;;;;;-5.71;72.38;95943.63;6221312;23;20020;-87
2024/01/11 00:48:42;;;;;;;65.45;22.42;;;;;;;-4.85;72.33;96094.28;6220290;23;20008;-87
2024/01/11 00:51:07;;;;;;;65.45;23.83;;;;;;;-6.01;71.81;95906.19;6220352;23;20016;-87
2024/01/11 00:53:33;;;;;;;64.03;24.20;;;;;;;-5.53;71.68;96020.13;6218955;23;20458;-87
2024/01/11 00:55:59;;;;;;;58.17;24.00;;;;;;;-4.72;72.67;96144.63;6219050;23;20008;-87
2024/01/11 01:10:39;;;;;;;64.72;25.33;;;;;;;-5.16;73.06;96040.47;5122104;27;20386;-83
2024/01/11 01:13:05;;;;;;;62.03;24.08;;;;;;;-4.43;73.14;96120.97;5090039;28;20032;-84
2024/01/11 01:15:31;;;;;;;67.10;25.48;;;;;;;-4.27;72.57;96162.41;5090554;28;20028;-81
2024/01/11 01:17:56;;;;;;;59.08;23.70;;;;;;;-4.27;71.97;96156.41;5098399;28;20395;-82
2024/01/11 01:20:22;;;;;;;52.75;23.25;;;;;;;-4.42;71.98;96129.50;5099476;28;20027;-82
2024/01/11 01:22:49;;;;;;;57.00;23.17;;;;;;;-4.27;71.91;96161.59;5092313;28;20031;-82
2024/01/11 01:25:15;;;;;;;61.35;23.67;;;;;;;-4.31;71.37;96150.75;5110906;28;20028;-81
2024/01/11 01:27:40;;;;;;;58.17;23.98;;;;;;;-6.40;71.91;95828.38;5104027;28;20053;-82
2024/01/11 01:30:06;;;;;;;70.07;23.88;;;;;;;-6.43;72.22;95816.63;5095947;28;20566;-82
2024/01/11 01:32:32;;;;;;;63.25;22.23;;;;;;;-6.00;71.99;95890.56;5103889;28;20024;-81
2024/01/11 01:34:58;;;;;;;58.35;22.85;;;;;;;-4.95;71.84;96049.59;5096232;28;20028;-83
2024/01/11 01:37:24;;;;;;;59.50;24.05;;;;;;;-5.53;71.99;95973.59;5105217;28;20031;-83
2024/01/11 01:39:49;;;;;;;58.70;23.83;;;;;;;-4.52;72.30;96114.13;5094192;28;20555;-82
2024/01/11 01:42:15;;;;;;;56.03;23.17;;;;;;;-5.16;72.00;96034.50;5106473;28;20110;-82
2024/01/11 01:44:41;;;;;;;65.10;24.80;;;;;;;-4.52;71.81;96127.06;5090376;28;20092;-83
2024/01/11 01:47:08;;;;;;;67.07;23.60;;;;;;;-4.49;72.34;96129.34;5096362;28;20391;-87
2024/01/11 01:49:36;;;;;;;63.60;23.88;;;;;;;-4.42;71.52;96129.50;5097922;28;20024;-87
2024/01/11 01:52:03;;;;;;;57.17;22.02;;;;;;;-4.64;71.89;96099.84;5088724;28;20483;-87
2024/01/11 01:54:29;;;;;;;58.22;23.90;;;;;;;-4.48;71.97;96128.38;5093293;28;20024;-87
2024/01/11 01:56:55;;;;;;;70.80;23.25;;;;;;;-4.68;72.28;96099.38;5097125;28;20043;-87
2024/01/11 01:59:22;;;;;;;61.22;24.90;;;;;;;-5.26;72.08;96003.56;5093538;28;20120;-87
2024/01/11 02:01:48;;;;;;;66.85;23.83;;;;;;;-6.24;71.74;95857.69;5109304;28;20043;-87
2024/01/11 02:04:15;;;;;;;73.80;25.00;;;;;;;-5.29;72.43;96000.50;5108951;28;20055;-87
2024/01/11 02:06:41;;;;;;;81.28;28.95;;;;;;;-4.54;71.69;96110.88;5099267;28;20030;-85
2024/01/11 02:09:08;;;;;;;74.18;29.20;;;;;;;-7.64;71.10;95641.38;5122502;28;20070;-89
2024/01/11 02:11:33;;;;;;;65.15;24.70;;;;;;;-4.71;71.21;96122.97;5101686;28;20039;-87
2024/01/11 02:14:00;;;;;;;65.28;24.88;;;;;;;-6.50;71.49;95828.50;5097881;28;20104;-88
2024/01/11 02:16:25;;;;;;;52.28;20.52;;;;;;;-5.84;71.52;95942.28;5090129;28;20036;-87
2024/01/11 02:18:51;;;;;;;48.75;18.52;;;;;;;-4.65;70.80;96100.03;5091619;28;20033;-87
2024/01/11 02:21:17;;;;;;;43.60;18.27;;;;;;;-5.71;70.61;95948.78;5079081;28;20029;-87
2024/01/11 02:23:46;;;;;;;63.47;16.70;;;;;;;-4.72;70.31;96105.00;5082816;28;20012;-88
2024/01/11 02:26:13;;;;;;;44.88;15.02;;;;;;;-5.57;70.67;96002.50;5072191;28;20042;-87
2024/01/11 02:28:43;;;;;;;38.78;14.65;;;;;;;-5.27;70.73;96076.97;5085478;28;20062;-87
2024/01/11 02:31:09;;;;;;;36.67;14.45;;;;;;;-6.02;70.63;95938.16;5088377;28;20480;-87
2024/01/11 02:33:34;;;;;;;38.05;13.30;;;;;;;-5.06;70.72;96100.66;5075671;28;20071;-87
2024/01/11 02:36:00;;;;;;;39.72;14.20;;;;;;;-5.92;70.27;95969.84;5074825;28;20044;-87
2024/01/11 02:38:27;;;;;;;39.00;13.88;;;;;;;-5.49;70.21;96020.59;5076796;28;20044;-86
2024/01/11 02:40:54;;;;;;;35.38;12.15;;;;;;;-5.84;71.35;95985.38;5076663;28;20039;-87
2024/01/11 02:43:19;;;;;;;38.22;12.73;;;;;;;-5.15;71.40;96077.50;5085169;28;20024;-88
2024/01/11 02:45:45;;;;;;;41.83;13.95;;;;;;;-5.17;71.04;96074.25;5086758;28;20035;-87
2024/01/11 02:48:11;;;;;;;32.40;13.00;;;;;;;-5.11;71.10;96108.06;5076142;28;20032;-87
2024/01/11 02:50:36;;;;;;;36.83;13.57;;;;;;;-5.16;71.39;96066.34;5075199;28;20423;-87
2024/01/11 02:53:02;;;;;;;36.05;13.48;;;;;;;-6.35;71.16;95880.38;5077182;28;20033;-87
2024/01/11 02:55:27;;;;;;;34.38;13.30;;;;;;;-5.95;71.25;95947.72;5075365;28;20090;-87
2024/01/11 02:57:53;;;;;;;37.05;13.90;;;;;;;-5.20;71.96;96059.88;5082262;28;20035;-87
2024/01/11 03:00:18;;;;;;;34.58;14.50;;;;;;;-5.01;71.72;96095.00;5094695;28;20069;-87
2024/01/11 03:02:44;;;;;;;37.92;13.75;;;;;;;-5.21;71.27;96060.03;5089136;28;20174;-89
2024/01/11 03:05:10;;;;;;;38.90;15.02;;;;;;;-5.11;71.08;96084.78;5092615;28;20100;-88
2024/01/11 03:07:36;;;;;;;40.22;14.75;;;;;;;-5.33;70.78;96064.63;5090105;28;20109;-88
2024/01/11 03:10:01;;;;;;;40.72;15.07;;;;;;;-7.83;71.47;95701.56;5098343;28;20048;-87
2024/01/11 03:12:27;;;;;;;35.08;14.45;;;;;;;-7.19;71.24;95805.31;5095641;28;20098;-87
2024/01/11 03:14:52;;;;;;;37.67;15.00;;;;;;;-6.39;71.93;95918.56;5092977;28;20027;-87
2024/01/11 03:17:18;;;;;;;40.60;16.58;;;;;;;-7.62;71.50;95727.00;5095968;28;20146;-87
2024/01/11 03:19:43;;;;;;;40.72;15.73;;;;;;;-5.29;72.28;96078.06;5078259;28;20432;-87
2024/01/11 03:22:09;;;;;;;45.05;16.00;;;;;;;-6.12;71.01;95952.97;5085373;28;20027;-87
2024/01/11 03:24:39;;;;;;;44.78;17.75;;;;;;;-5.31;71.12;96080.00;5116634;28;20035;-87
2024/01/11 03:27:05;;;;;;;43.08;17.83;;;;;;;-6.32;70.99;95937.66;5100352;28;20109;-88
2024/01/11 03:29:31;;;;;;;44.40;17.75;;;;;;;-5.58;71.66;96066.28;5094018;28;20456;-87
2024/01/11 03:31:56;;;;;;;53.40;21.15;;;;;;;-5.83;72.28;96041.25;5083951;28;20024;-87
2024/01/11 03:34:22;;;;;;;47.53;18.35;;;;;;;-6.85;72.29;95846.63;5118091;28;20024;-87
2024/01/11 03:36:48;;;;;;;52.97;20.52;;;;;;;-6.59;72.39;95904.25;5081224;28;20024;-87
2024/01/11 03:39:13;;;;;;;57.63;21.10;;;;;;;-5.67;73.11;96053.47;5084149;28;20038;-87
2024/01/11 03:41:44;;;;;;;65.75;22.38;;;;;;;-5.88;73.35;96015.91;5105692;28;20028;-86
2024/01/11 03:44:09;;;;;;;54.38;19.77;;;;;;;-6.46;72.84;95922.72;5116119;28;20407;-83
2024/01/11 03:46:35;;;;;;;58.88;22.90;;;;;;;-5.33;72.80;96066.41;5084513;28;20059;-82
2024/01/11 03:49:00;;;;;;;60.10;21.10;;;;;;;-6.80;72.45;95841.88;5101111;28;20062;-82
2024/01/11 03:51:26;;;;;;;54.13;22.52;;;;;;;-6.98;72.21;95797.25;5100981;28;20133;-82
2024/01/11 03:53:51;;;;;;;55.25;19.77;;;;;;;-6.72;72.15;95836.75;5101877;28;20031;-83
2024/01/11 03:56:17;;;;;;;57.03;21.63;;;;;;;-5.89;71.77;95972.16;5100662;28;20584;-83
2024/01/11 03:58:44;;;;;;;56.20;21.20;;;;;;;-5.32;72.39;96066.25;5114356;28;20024;-83
2024/01/11 04:01:10;;;;;;;58.40;20.02;;;;;;;-7.77;72.44;95666.69;5080655;28;20043;-82
2024/01/11 04:03:36;;;;;;;55.90;19.70;;;;;;;-5.36;72.71;96056.38;5115602;28;20030;-82
2024/01/11 04:06:02;;;;;;;60.25;22.73;;;;;;;-5.39;71.82;96048.94;5095059;28;20039;-83
2024/01/11 04:08:28;;;;;;;55.80;20.48;;;;;;;-5.49;71.84;96059.38;5095688;28;20020;-82
2024/01/11 04:10:53;;;;;;;45.30;19.15;;;;;;;-6.10;71.41;95966.53;5076909;28;20039;-82
2024/01/11 04:13:19;;;;;;;49.88;20.50;;;;;;;-5.96;72.38;96002.94;5077042;28;20462;-83
2024/01/11 04:15:44;;;;;;;49.40;18.73;;;;;;;-6.40;72.57;95953.06;5115711;28;20043;-82
2024/01/11 04:18:10;;;;;;;46.55;18.60;;;;;;;-5.82;73.03;96058.38;5094362;28;20028;-82
2024/01/11 04:20:35;;;;;;;45.88;19.60;;;;;;;-6.85;72.59;95890.47;5093509;28;20039;-82
2024/01/11 04:23:01;;;;;;;44.22;17.38;;;;;;;-6.16;72.82;95982.59;5076989;28;20034;-81
2024/01/11 04:25:26;;;;;;;47.50;18.20;;;;;;;-6.36;72.20;95961.34;5114612;28;20051;-86
2024/01/11 04:27:52;;;;;;;44.58;19.05;;;;;;;-6.91;72.96;95884.16;5076522;28;20446;-85
2024/01/11 04:30:17;;;;;;;42.67;19.67;;;;;;;-6.25;72.87;95974.00;5115004;28;20027;-82
2024/01/11 04:32:43;;;;;;;53.42;20.17;;;;;;;-6.27;73.03;95960.44;5083981;28;20067;-88
2024/01/11 04:35:09;;;;;;;53.45;19.27;;;;;;;-6.45;72.74;95923.53;5103143;28;20118;-89
2024/01/11 04:37:35;;;;;;;50.95;19.05;;;;;;;-6.34;73.67;95943.94;5087266;28;20027;-87
2024/01/11 04:40:01;;;;;;;64.68;21.75;;;;;;;-7.14;73.95;95801.31;5094397;28;20040;-88
2024/01/11 04:42:29;;;;;;;54.53;19.98;;;;;;;-5.56;74.38;96058.34;5113821;28;20028;-88
2024/01/11 04:44:55;;;;;;;55.20;20.73;;;;;;;-6.47;74.33;95903.03;5110636;28;20028;-88
2024/01/11 04:47:20;;;;;;;54.42;21.92;;;;;;;-7.79;74.07;95709.81;5110348;28;20024;-82
2024/01/11 04:49:46;;;;;;;50.08;21.50;;;;;;;-5.51;74.27;96059.53;5106341;28;20099;-83
2024/01/11 04:52:12;;;;;;;68.53;23.63;;;;;;;-6.81;74.43;95843.63;5124072;28;20053;-84
2024/01/11 04:54:37;;;;;;;74.15;25.35;;;;;;;-6.10;73.43;95956.22;5102871;28;20081;-83
2024/01/11 04:57:03;;;;;;;60.42;25.65;;;;;;;-6.19;73.43;95945.00;5087356;28;20043;-82
2024/01/11 04:59:32;;;;;;;66.38;25.10;;;;;;;-7.25;73.50;95783.53;5079629;28;20464;-81
2024/01/11 05:01:57;;;;;;;82.18;26.13;;;;;;;-5.43;73.36;96058.78;5099688;28;20039;-83
2024/01/11 05:04:23;;;;;;;80.93;29.25;;;;;;;-5.83;73.60;95992.16;5091538;28;20034;-82
2024/01/11 05:06:48;;;;;;;75.85;29.20;;;;;;;-6.12;72.87;95956.34;5090650;28;20407;-82
2024/01/11 05:09:14;;;;;;;72.75;29.98;;;;;;;-6.11;73.75;95962.34;5093038;28;20121;-83
2024/01/11 05:11:40;;;;;;;101.78;32.17;;;;;;;-7.74;73.50;95681.03;5085715;28;20031;-83
2024/01/11 05:14:05;;;;;;;78.22;30.67;;;;;;;-5.98;73.62;95967.88;5098899;28;20484;-84
2024/01/11 05:16:31;;;;;;;74.65;30.77;;;;;;;-7.12;72.97;95783.94;5084593;28;20043;-83
2024/01/11 05:18:57;;;;;;;94.85;32.35;;;;;;;-5.76;73.43;95985.44;5096855;28;20185;-82
2024/01/11 05:21:24;;;;;;;85.90;31.77;;;;;;;-5.71;73.24;95988.34;5110047;28;20424;-85
2024/01/11 05:23:49;;;;;;;82.93;30.90;;;;;;;-9.26;72.51;95413.75;5082463;28;20036;-84
2024/01/11 05:26:17;;;;;;;80.38;30.83;;;;;;;-6.62;73.17;95829.72;5094434;28;20028;-84
2024/01/11 05:28:42;;;;;;;96.63;32.75;;;;;;;-6.54;72.76;95862.50;5084102;28;20482;-86
2024/01/11 05:31:13;;;;;;;92.45;33.67;;;;;;;-5.36;73.22;96038.28;5094221;28;20107;-85
2024/01/11 05:33:39;;;;;;;75.90;25.83;;;;;;;-5.67;72.89;96006.94;5080108;28;20104;-84
2024/01/11 05:36:05;;;;;;;99.30;35.33;;;;;;;-5.79;73.48;95964.25;5087372;28;20024;-85
2024/01/11 05:38:31;;;;;;;105.32;37.72;;;;;;;-5.47;73.19;96031.59;5066779;28;20403;-87
2024/01/11 05:40:57;;;;;;;106.88;35.45;;;;;;;-5.65;73.16;96005.03;5073535;28;20036;-85
2024/01/11 05:43:23;;;;;;;95.43;35.65;;;;;;;-7.79;73.42;95676.34;5067683;28;20420;-86
2024/01/11 05:45:49;;;;;;;85.28;34.15;;;;;;;-6.90;73.65;95825.66;5068955;28;20519;-86
2024/01/11 05:48:19;;;;;;;86.43;32.58;;;;;;;-5.54;73.28;96033.19;5071291;28;20036;-87
2024/01/11 05:50:56;;;;;;;102.90;35.65;;;;;;;-5.55;73.68;96018.63;5087157;28;20066;-87
2024/01/11 05:53:22;;;;;;;90.50;34.50;;;;;;;-7.68;72.86;95695.88;5084421;28;20495;-83
2024/01/11 05:55:48;;;;;;;90.35;33.22;;;;;;;-6.80;73.31;95823.81;5083972;28;20088;-89
2024/01/11 05:58:13;;;;;;;85.00;31.98;;;;;;;-6.40;73.55;95921.28;5080227;28;20131;-85
2024/01/11 06:00:41;;;;;;;95.28;34.00;;;;;;;-5.72;73.61;96014.38;5101729;28;20036;-88
2024/01/11 06:03:07;;;;;;;88.28;32.95;;;;;;;-6.52;73.94;95881.22;5065691;28;20035;-84
2024/01/11 06:05:33;;;;;;;89.95;34.03;;;;;;;-7.32;73.74;95743.03;5061225;28;20047;-87
2024/01/11 06:07:59;;;;;;;92.68;35.83;;;;;;;-6.66;73.71;95856.78;5102757;28;20028;-84
2024/01/11 06:10:24;;;;;;;90.10;36.00;;;;;;;-9.24;73.09;95434.97;5085680;28;20057;-84
2024/01/11 06:12:50;;;;;;;99.70;37.22;;;;;;;-5.55;73.58;96022.03;5116516;28;20032;-84
2024/01/11 06:15:16;;;;;;;92.18;34.45;;;;;;;-6.00;73.23;95931.06;5074875;28;20031;-87
2024/01/11 06:17:42;;;;;;;83.78;34.75;;;;;;;-5.63;73.41;95988.38;5110349;28;20165;-84
2024/01/11 06:20:09;;;;;;;87.72;34.40;;;;;;;-5.46;73.95;96018.53;5088321;28;20040;-82
2024/01/11 06:22:35;;;;;;;98.40;35.55;;;;;;;-7.96;73.63;95605.09;5078518;28;21153;-83
2024/01/11 06:25:01;;;;;;;92.55;34.75;;;;;;;-6.39;73.18;95866.94;5100274;28;20111;-84
2024/01/11 06:27:26;;;;;;;97.82;37.25;;;;;;;-6.39;72.90;95853.22;5081793;28;20032;-84
2024/01/11 06:29:52;;;;;;;101.82;36.28;;;;;;;-6.88;72.98;95744.63;5084635;28;20032;-85
2024/01/11 06:32:18;;;;;;;93.03;36.58;;;;;;;-6.20;73.39;95876.25;5101869;28;20023;-83
2024/01/11 06:34:45;;;;;;;88.82;35.28;;;;;;;-5.34;73.12;96000.97;5080407;28;20035;-83
2024/01/11 06:37:11;;;;;;;86.72;35.40;;;;;;;-5.38;73.03;96007.41;5085527;28;20104;-85
2024/01/11 06:39:37;;;;;;;100.03;34.97;;;;;;;-6.97;72.41;95731.81;5082395;28;20024;-86
2024/01/11 06:42:03;;;;;;;91.28;36.75;;;;;;;-5.27;73.11;95993.41;5085986;28;20189;-84
2024/01/11 06:44:28;;;;;;;104.00;36.00;;;;;;;-5.29;73.23;95998.75;5103718;28;20056;-87
2024/01/11 06:46:54;;;;;;;92.68;36.15;;;;;;;-5.62;72.66;95943.50;5082493;28;20130;-85
2024/01/11 06:49:20;;;;;;;100.18;36.13;;;;;;;-6.27;73.64;95837.34;5098053;28;20032;-84
2024/01/11 06:51:45;;;;;;;92.97;36.17;;;;;;;-6.49;73.40;95780.31;5100159;28;20485;-83
2024/01/11 06:54:11;;;;;;;89.47;36.20;;;;;;;-6.30;73.57;95811.84;5083793;28;20052;-83
2024/01/11 06:56:37;;;;;;;98.95;36.47;;;;;;;-5.90;73.22;95873.19;5088238;28;20502;-85
2024/01/11 06:59:02;;;;;;;94.25;36.08;;;;;;;-6.21;73.56;95812.69;5082924;28;20032;-84
2024/01/11 07:01:28;;;;;;;85.35;36.50;;;;;;;-6.00;73.02;95882.81;5090542;28;20062;-84
2024/01/11 07:03:53;;;;;;;96.97;37.15;;;;;;;-5.24;73.04;95964.63;5102741;28;20031;-87
2024/01/11 07:06:19;;;;;;;100.60;40.28;;;;;;;-5.11;73.72;95976.16;5101774;28;20028;-85
2024/01/11 07:08:47;;;;;;;94.63;37.95;;;;;;;-5.92;73.22;95838.13;5077123;28;20306;-82
2024/01/11 07:11:13;;;;;;;120.90;46.22;;;;;;;-6.87;72.69;95689.50;5081761;28;20150;-86
2024/01/11 07:14:36;;;;;;;111.80;41.03;;;;;;;-5.04;72.38;96033.25;5071683;28;20027;-85
2024/01/11 07:17:02;;;;;;;104.63;41.20;;;;;;;-7.62;73.16;95600.00;5069182;28;20036;-85
2024/01/11 07:19:27;;;;;;;112.22;43.53;;;;;;;-6.44;73.75;95812.41;5100163;28;20475;-85
2024/01/11 07:21:53;;;;;;;104.20;41.28;;;;;;;-6.35;73.43;95813.25;5090020;28;20031;-85
2024/01/11 07:24:19;;;;;;;117.53;42.22;;;;;;;-6.16;73.10;95819.94;5093349;22;20057;-86
2024/01/11 07:26:45;;;;;;;124.35;42.03;;;;;;;-5.42;73.38;95933.75;5026428;28;20041;-85
2024/01/11 07:29:14;;;;;;;114.78;42.65;;;;;;;-5.35;73.08;95957.19;5030868;28;20033;-89
2024/01/11 07:31:39;;;;;;;96.65;39.10;;;;;;;-8.23;72.84;95487.63;5050642;28;20096;-88
2024/01/11 07:34:07;;;;;;;107.90;43.80;;;;;;;-6.71;73.04;95711.97;5028188;28;20352;-87
2024/01/11 07:36:38;;;;;;;106.80;44.00;;;;;;;-8.23;72.71;95501.28;5028094;28;20135;-86
2024/01/11 07:39:04;;;;;;;114.95;43.38;;;;;;;-8.04;72.78;95550.97;5023936;28;20040;-87
2024/01/11 07:41:30;;;;;;;108.45;42.33;;;;;;;-8.50;72.61;95470.59;5020821;28;20040;-88
2024/01/11 07:43:58;;;;;;;101.22;42.20;;;;;;;-5.77;72.42;95874.47;5023266;28;20044;-88
2024/01/11 07:46:24;;;;;;;103.40;37.58;;;;;;;-5.57;73.09;95933.50;5043468;28;20135;-88
2024/01/11 07:48:49;;;;;;;69.55;31.60;;;;;;;-5.41;72.70;95940.50;5034918;28;20235;-85
2024/01/11 07:51:19;;;;;;;65.43;28.10;;;;;;;-4.92;72.62;95984.63;5015583;28;20772;-87
2024/01/11 07:53:45;;;;;;;75.28;30.58;;;;;;;-5.76;72.39;95866.56;5041822;28;20037;-85
2024/01/11 07:56:15;;;;;;;73.85;29.50;;;;;;;-8.00;71.86;95487.91;5047945;28;20040;-86
2024/01/11 07:58:41;;;;;;;78.90;31.47;;;;;;;-7.72;71.39;95520.28;5021958;28;20135;-86
2024/01/11 08:01:09;;;;;;;87.65;32.92;;;;;;;-7.46;71.74;95602.66;5030139;28;20056;-88
2024/01/11 08:03:35;;;;;;;91.88;33.78;;;;;;;-5.02;71.81;95947.72;5067993;22;20063;-80
2024/01/11 08:06:01;;;;;;;91.55;36.22;;;;;;;-6.40;71.15;95720.81;5070144;28;20048;-81
2024/01/11 08:08:27;;;;;;;73.15;32.75;;;;;;;-5.40;71.49;95905.13;5064351;28;20064;-80
2024/01/11 08:10:53;;;;;;;75.57;32.50;;;;;;;-6.34;71.88;95755.53;5048014;28;20048;-81
2024/01/11 08:13:21;;;;;;;77.50;33.28;;;;;;;-5.17;72.11;95914.72;5049418;28;20032;-80
2024/01/11 08:15:47;;;;;;;71.93;32.58;;;;;;;-4.81;71.84;95959.28;5037943;28;20043;-81
2024/01/11 08:18:13;;;;;;;82.97;34.10;;;;;;;-5.34;71.42;95870.91;5044424;28;20036;-82
2024/01/11 08:20:39;;;;;;;80.88;35.10;;;;;;;-4.95;71.88;95926.22;5041323;28;20059;-80
2024/01/11 08:23:05;;;;;;;82.57;33.85;;;;;;;-4.62;71.19;95959.91;5038481;28;20032;-80
2024/01/11 08:25:30;;;;;;;95.05;33.05;;;;;;;-4.65;71.12;95957.66;5050881;28;20051;-81
2024/01/11 08:27:56;;;;;;;86.53;35.47;;;;;;;-5.43;71.36;95813.22;5026268;28;20056;-81
2024/01/11 08:30:22;;;;;;;81.15;33.97;;;;;;;-4.57;70.63;95947.28;5035622;28;20056;-83
2024/01/11 08:32:47;;;;;;;94.97;36.65;;;;;;;-4.51;70.82;95962.22;5063040;28;20036;-81
2024/01/11 08:35:14;;;;;;;80.85;34.72;;;;;;;-4.70;71.10;95917.53;5061789;28;20258;-81
2024/01/11 08:37:39;;;;;;;91.18;35.80;;;;;;;-4.85;71.59;95892.47;5052620;28;20048;-80
2024/01/11 08:40:06;;;;;;;93.53;33.58;;;;;;;-4.52;71.79;95953.63;5058267;28;20040;-81
2024/01/11 08:42:32;;;;;;;92.05;36.53;;;;;;;-4.94;71.44;95889.06;5018734;28;20052;-79
2024/01/11 08:44:58;;;;;;;103.43;37.10;;;;;;;-4.37;71.20;95958.97;5060739;28;20040;-78
2024/01/11 08:47:24;;;;;;;89.60;35.92;;;;;;;-4.75;71.53;95912.03;5021968;28;20043;-80
2024/01/11 08:49:49;;;;;;;81.53;34.35;;;;;;;-4.38;71.83;95965.13;5057819;28;20037;-79
2024/01/11 08:52:15;;;;;;;85.20;35.30;;;;;;;-4.39;71.00;95959.13;5043006;28;20736;-80
2024/01/11 08:54:41;;;;;;;89.00;35.40;;;;;;;-4.48;71.61;95949.72;5029685;28;20118;-81
2024/01/11 08:57:06;;;;;;;99.30;35.38;;;;;;;-5.27;71.77;95808.06;5057465;28;20040;-78
2024/01/11 08:59:32;;;;;;;90.28;35.85;;;;;;;-4.58;71.68;95906.88;5045907;28;20025;-80
2024/01/11 09:01:58;;;;;;;87.68;34.78;;;;;;;-4.34;71.50;95922.38;5021056;28;20128;-80
2024/01/11 09:04:24;;;;;;;88.20;34.75;;;;;;;-4.88;71.71;95831.47;5025948;28;20057;-81
2024/01/11 09:06:49;;;;;;;94.40;36.55;;;;;;;-4.21;71.04;95920.09;5031492;28;20128;-79
2024/01/11 09:09:15;;;;;;;89.53;34.72;;;;;;;-4.54;71.23;95849.41;5030253;28;20253;-81
2024/01/11 09:11:40;;;;;;;83.07;34.17;;;;;;;-4.49;70.81;95823.84;5028025;28;20202;-78
2024/01/11 09:14:07;;;;;;;88.68;35.03;;;;;;;-4.04;71.63;95875.03;5044574;28;20033;-80
2024/01/11 09:16:33;;;;;;;82.13;34.35;;;;;;;-4.37;70.88;95803.59;5016282;23;20131;-81
2024/01/11 09:19:02;;;;;;;77.25;31.63;;;;;;;-4.19;70.40;95845.63;4990372;28;20625;-81
2024/01/11 09:21:27;;;;;;;67.10;30.08;;;;;;;-3.77;70.28;95886.00;4989906;28;20038;-82
2024/01/11 09:23:53;;;;;;;72.68;32.08;;;;;;;-3.70;69.61;95894.72;4987460;28;20637;-81
2024/01/11 09:26:18;;;;;;;80.07;33.58;;;;;;;-3.75;69.37;95882.25;4988075;28;20033;-80
2024/01/11 09:28:45;;;;;;;74.85;31.17;;;;;;;-3.87;69.90;95839.53;4986122;28;20031;-81
2024/01/11 09:31:11;;;;;;;72.20;30.83;;;;;;;-3.78;69.15;95848.09;4983229;28;20046;-81
2024/01/11 09:33:37;;;;;;;72.60;32.00;;;;;;;-3.55;69.21;95891.25;4982752;28;20600;-82
2024/01/11 09:36:02;;;;;;;73.18;31.88;;;;;;;-3.62;69.18;95855.78;4980404;28;20087;-81
2024/01/11 09:38:28;;;;;;;82.10;32.08;;;;;;;-3.53;68.72;95868.56;4980382;28;20125;-81
2024/01/11 09:41:07;;;;;;;79.60;31.75;;;;;;;-4.06;69.32;95767.41;4986328;28;20552;-81
2024/01/11 09:43:34;;;;;;;74.55;29.83;;;;;;;-3.62;68.65;95815.13;4989067;28;20056;-81
2024/01/11 09:46:07;;;;;;;72.53;29.58;;;;;;;-4.10;68.10;95751.38;4981827;28;20041;-83
2024/01/11 09:48:35;;;;;;;80.43;31.73;;;;;;;-3.44;68.56;95858.16;4978450;28;20053;-83
2024/01/11 09:51:07;;;;;;;69.72;31.05;;;;;;;-3.51;67.80;95821.72;4995719;28;20053;-83
2024/01/11 09:53:34;;;;;;;81.18;30.23;;;;;;;-3.46;68.30;95871.28;4991447;28;20034;-83
2024/01/11 09:56:09;;;;;;;68.50;31.65;;;;;;;-3.16;67.98;95846.28;4994977;28;20053;-83
2024/01/11 09:58:39;;;;;;;80.32;31.48;;;;;;;-3.45;68.18;95802.06;4994612;28;20038;-82
2024/01/11 10:01:10;;;;;;;79.22;32.30;;;;;;;-3.94;67.68;95722.78;4993625;28;20042;-83
2024/01/11 10:03:35;;;;;;;66.20;31.05;;;;;;;-3.86;67.67;95718.53;4996121;28;20034;-82
2024/01/11 10:06:02;;;;;;;79.53;32.95;;;;;;;-3.34;68.20;95797.28;4996005;28;20073;-83
2024/01/11 10:08:29;;;;;;;78.20;32.70;;;;;;;-3.36;68.28;95775.91;5000067;28;20041;-81
2024/01/11 10:10:54;;;;;;;72.03;34.42;;;;;;;-3.29;68.07;95773.44;4993670;28;20034;-85
2024/01/11 10:13:30;;;;;;;76.68;32.58;;;;;;;-3.40;67.78;95725.34;4995482;28;20037;-81
2024/01/11 10:16:15;;;;;;;84.50;34.47;;;;;;;-4.23;67.69;95590.53;5001957;28;20450;-82
2024/01/11 10:18:41;;;;;;;86.32;34.53;;;;;;;-2.88;68.00;95800.66;5015285;28;20485;-83
2024/01/11 10:21:09;;;;;;;101.53;36.55;;;;;;;-2.71;67.99;95793.53;5006573;28;21068;-81
2024/01/11 10:23:36;;;;;;;78.70;32.80;;;;;;;-2.53;67.50;95799.22;5017507;28;20026;-83
2024/01/11 10:26:02;;;;;;;92.28;32.60;;;;;;;-2.20;66.84;95749.50;5007752;28;20042;-83
2024/01/11 10:28:28;;;;;;;83.32;32.38;;;;;;;-1.04;64.84;95789.22;5011073;28;20042;-81
2024/01/11 10:30:54;;;;;;;76.35;33.63;;;;;;;-0.41;62.59;95790.13;4997265;28;20041;-83
2024/01/11 10:33:26;;;;;;;73.15;31.95;;;;;;;0.18;61.25;95698.34;4977780;28;20042;-82
2024/01/11 10:35:51;;;;;;;72.22;32.97;;;;;;;1.38;60.18;95769.59;4972849;28;20100;-83
2024/01/11 10:38:17;;;;;;;77.63;30.52;;;;;;;1.81;57.91;95678.44;4976356;28;20382;-85
2024/01/11 10:40:43;;;;;;;93.47;34.20;;;;;;;2.61;55.55;95629.88;5007196;28;20038;-83
2024/01/11 10:43:15;;;;;;;76.80;33.78;;;;;;;3.82;53.20;95727.22;5016899;28;20033;-82
2024/01/11 10:45:41;;;;;;;75.50;33.13;;;;;;;4.71;53.55;95724.97;4997527;28;20410;-83
2024/01/11 10:48:16;;;;;;;86.95;35.95;;;;;;;5.61;52.43;95747.44;5014572;28;20037;-81
2024/01/11 10:50:49;;;;;;;87.80;36.50;;;;;;;6.17;50.64;95749.50;4991808;28;20037;-80
2024/01/11 10:53:39;;;;;;;85.55;36.13;;;;;;;6.65;48.64;95753.59;5016741;28;20082;-80
2024/01/11 10:56:09;;;;;;;76.22;34.97;;;;;;;7.05;46.56;95747.47;4996167;28;20467;-82
2024/01/11 10:58:35;;;;;;;75.05;36.10;;;;;;;6.77;46.04;95677.94;4995269;28;20045;-83
2024/01/11 11:01:04;;;;;;;72.35;36.88;;;;;;;6.72;44.62;95634.84;5015261;28;20030;-80
2024/01/11 11:03:31;;;;;;;76.75;36.65;;;;;;;7.42;45.01;95724.09;4998872;28;20064;-83
2024/01/11 11:05:58;;;;;;;71.20;35.50;;;;;;;6.40;44.63;95552.91;4999704;28;20080;-85
2024/01/11 11:08:26;;;;;;;85.05;37.03;;;;;;;5.55;44.22;95487.88;5002330;28;20065;-81
2024/01/11 11:11:01;;;;;;;74.95;38.33;;;;;;;5.17;45.49;95483.19;4998736;28;20033;-85
2024/01/11 11:13:27;;;;;;;75.13;36.67;;;;;;;5.01;45.84;95508.38;4988969;28;20109;-83
2024/01/11 11:15:54;;;;;;;86.03;36.15;;;;;;;5.69;46.02;95719.97;4993112;28;20065;-84
2024/01/11 11:18:20;;;;;;;77.63;37.22;;;;;;;2.46;46.89;95255.06;4999020;28;20041;-85
2024/01/11 11:20:47;;;;;;;84.50;38.15;;;;;;;3.91;48.14;95527.50;4978942;28;20091;-84
2024/01/11 11:23:17;;;;;;;91.07;38.97;;;;;;;1.02;48.73;95155.44;5001443;28;20044;-84
2024/01/11 11:25:45;;;;;;;74.65;34.67;;;;;;;2.44;49.61;95458.63;4992044;28;20041;-85